Time;durP1;ratioP1;P1;durP2;ratioP2;P2;SDS_P1;SDS_P2;PMS_P1;PMS_P2;Temp;Humidity;BMP_temperature;BMP_pressure;BME280_temperature;BME280_humidity;BME280_pressure;Samples;Min_cycle;Max_cycle;Signal;HPM_P1;HPM_P2
2023/11/26 00:02:27;;;;;;;0.37;0.37;;;;;;;;;;6209506;22;20190;-90
2023/11/26 00:05:32;;;;;;;0.60;0.60;;;;;;;;;;6209984;23;20167;-90
2023/11/26 00:08:39;;;;;;;0.40;0.40;;;;;;;;;;6211460;23;20253;-91
2023/11/26 00:11:45;;;;;;;0.33;0.33;;;;;;;;;;6211458;23;20175;-90
2023/11/26 00:14:50;;;;;;;0.77;0.77;;;;;;;;;;6211231;23;20196;-92
2023/11/26 00:17:56;;;;;;;0.30;0.30;;;;;;;;;;6210113;22;20170;-93
2023/11/26 00:21:01;;;;;;;0.33;0.33;;;;;;;;;;6211217;22;20249;-89
2023/11/26 00:24:09;;;;;;;0.40;0.40;;;;;;;;;;6211091;23;20167;-90
2023/11/26 00:27:14;;;;;;;0.30;0.30;;;;;;;;;;6210540;23;20167;-93
2023/11/26 00:30:19;;;;;;;0.23;0.23;;;;;;;;;;6209482;23;20195;-93
2023/11/26 00:33:24;;;;;;;0.40;0.40;;;;;;;;;;6209664;23;20167;-89
2023/11/26 00:36:29;;;;;;;0.30;0.30;;;;;;;;;;6208255;23;20167;-91
2023/11/26 00:39:36;;;;;;;0.43;0.43;;;;;;;;;;6210617;23;20155;-93
2023/11/26 00:42:41;;;;;;;0.30;0.30;;;;;;;;;;6208679;23;20175;-92
2023/11/26 00:45:47;;;;;;;0.50;0.50;;;;;;;;;;6209212;23;20155;-92
2023/11/26 00:48:52;;;;;;;0.37;0.37;;;;;;;;;;6208547;22;20242;-91
2023/11/26 00:51:57;;;;;;;1.13;0.80;;;;;;;;;;6212726;22;20220;-91
2023/11/26 00:55:06;;;;;;;0.33;0.33;;;;;;;;;;6212118;23;20219;-90
2023/11/26 00:58:11;;;;;;;0.50;0.50;;;;;;;;;;6210363;23;20259;-92
2023/11/26 01:01:17;;;;;;;0.30;0.30;;;;;;;;;;6215415;23;20210;-92
2023/11/26 01:04:22;;;;;;;1.07;0.97;;;;;;;;;;6206720;22;20266;-91
2023/11/26 01:07:30;;;;;;;0.30;0.30;;;;;;;;;;6209374;23;20156;-90
2023/11/26 01:10:36;;;;;;;0.30;0.30;;;;;;;;;;6207707;23;20510;-92
2023/11/26 01:13:42;;;;;;;0.30;0.30;;;;;;;;;;6207997;23;20221;-93
2023/11/26 01:16:50;;;;;;;0.30;0.30;;;;;;;;;;6211190;23;20170;-91
2023/11/26 01:19:55;;;;;;;0.37;0.37;;;;;;;;;;6212135;23;20171;-91
2023/11/26 01:23:03;;;;;;;0.30;0.30;;;;;;;;;;6212388;23;20227;-91
2023/11/26 01:26:12;;;;;;;0.30;0.30;;;;;;;;;;6213149;23;20591;-93
2023/11/26 01:29:17;;;;;;;0.40;0.40;;;;;;;;;;6213978;22;20199;-91
2023/11/26 01:32:23;;;;;;;0.30;0.30;;;;;;;;;;6213427;22;20178;-92
2023/11/26 01:35:28;;;;;;;0.30;0.30;;;;;;;;;;6213026;23;20220;-90
2023/11/26 01:38:34;;;;;;;0.30;0.30;;;;;;;;;;6213532;22;20171;-90
2023/11/26 01:41:44;;;;;;;0.30;0.30;;;;;;;;;;6210729;23;20167;-92
2023/11/26 01:44:49;;;;;;;0.30;0.30;;;;;;;;;;6211957;22;20340;-93
2023/11/26 01:47:55;;;;;;;0.30;0.30;;;;;;;;;;6212018;22;20167;-93
2023/11/26 01:51:01;;;;;;;0.60;0.60;;;;;;;;;;6210417;23;20646;-90
2023/11/26 01:54:07;;;;;;;1.63;1.33;;;;;;;;;;6211438;23;20186;-91
2023/11/26 01:57:17;;;;;;;0.30;0.30;;;;;;;;;;6210996;23;20242;-89
2023/11/26 02:00:23;;;;;;;2.10;1.57;;;;;;;;;;6211909;22;20175;-92
2023/11/26 02:03:28;;;;;;;0.30;0.30;;;;;;;;;;6210566;23;20269;-90
2023/11/26 02:06:34;;;;;;;0.30;0.30;;;;;;;;;;6211486;23;20179;-91
2023/11/26 02:09:40;;;;;;;0.30;0.30;;;;;;;;;;6210084;23;20194;-93
2023/11/26 02:13:00;;;;;;;1.33;1.23;;;;;;;;;;6209662;23;20195;-88
2023/11/26 02:16:07;;;;;;;0.87;0.87;;;;;;;;;;6210206;23;20179;-92
2023/11/26 02:19:16;;;;;;;0.33;0.33;;;;;;;;;;6211257;23;20206;-94
2023/11/26 02:22:21;;;;;;;0.30;0.30;;;;;;;;;;6210530;23;20175;-90
2023/11/26 02:25:31;;;;;;;0.47;0.47;;;;;;;;;;6211116;22;20223;-91
2023/11/26 02:28:36;;;;;;;0.30;0.30;;;;;;;;;;6210339;23;20184;-89
2023/11/26 02:31:41;;;;;;;0.40;0.40;;;;;;;;;;6210978;23;20325;-91
2023/11/26 02:34:46;;;;;;;0.57;0.57;;;;;;;;;;6212717;23;20611;-92
2023/11/26 02:37:52;;;;;;;0.23;0.23;;;;;;;;;;6208773;23;20164;-91
2023/11/26 02:40:59;;;;;;;0.50;0.50;;;;;;;;;;6210198;22;20163;-91
2023/11/26 02:44:04;;;;;;;0.50;0.50;;;;;;;;;;6208856;22;20167;-92
2023/11/26 02:47:09;;;;;;;0.37;0.37;;;;;;;;;;6210399;23;20179;-92
2023/11/26 02:50:20;;;;;;;0.80;0.80;;;;;;;;;;6212321;23;20191;-90
2023/11/26 02:53:26;;;;;;;0.30;0.30;;;;;;;;;;6211351;23;20170;-90
2023/11/26 02:56:33;;;;;;;0.40;0.40;;;;;;;;;;6210491;22;20238;-89
2023/11/26 02:59:38;;;;;;;0.60;0.60;;;;;;;;;;6211403;23;20242;-91
2023/11/26 03:02:44;;;;;;;0.87;0.87;;;;;;;;;;6210897;23;20190;-93
2023/11/26 03:05:50;;;;;;;0.30;0.30;;;;;;;;;;6211382;23;20171;-91
2023/11/26 03:09:00;;;;;;;0.50;0.50;;;;;;;;;;6211183;23;20171;-91
2023/11/26 03:15:29;;;;;;;0.33;0.33;;;;;;;;;;6211034;22;20176;-91
2023/11/26 03:18:34;;;;;;;0.60;0.60;;;;;;;;;;6210678;23;20175;-92
2023/11/26 03:21:39;;;;;;;0.40;0.40;;;;;;;;;;6210697;22;20150;-91
2023/11/26 03:24:44;;;;;;;0.33;0.33;;;;;;;;;;6209631;23;20174;-90
2023/11/26 03:27:52;;;;;;;0.50;0.50;;;;;;;;;;6210876;23;20166;-90
2023/11/26 03:30:57;;;;;;;0.60;0.60;;;;;;;;;;6211623;23;20195;-94
2023/11/26 03:34:08;;;;;;;1.10;1.03;;;;;;;;;;6209596;23;20159;-89
2023/11/26 03:37:13;;;;;;;0.30;0.30;;;;;;;;;;6210356;22;20168;-91
2023/11/26 03:40:19;;;;;;;0.40;0.40;;;;;;;;;;6209202;22;20183;-91
2023/11/26 03:43:26;;;;;;;0.40;0.40;;;;;;;;;;6210526;23;20158;-89
2023/11/26 03:46:32;;;;;;;0.70;0.70;;;;;;;;;;6210025;23;20171;-90
2023/11/26 03:49:38;;;;;;;0.40;0.40;;;;;;;;;;6209173;23;20666;-89
2023/11/26 03:52:43;;;;;;;0.67;0.60;;;;;;;;;;6210484;23;20171;-90
2023/11/26 03:55:49;;;;;;;0.40;0.40;;;;;;;;;;6210470;23;20167;-91
2023/11/26 03:58:56;;;;;;;2.03;0.70;;;;;;;;;;6210332;23;20174;-91
2023/11/26 04:02:01;;;;;;;0.30;0.30;;;;;;;;;;6209378;23;20187;-91
2023/11/26 04:05:07;;;;;;;0.40;0.40;;;;;;;;;;6209893;22;20151;-92
2023/11/26 04:08:12;;;;;;;0.43;0.43;;;;;;;;;;6208754;22;20213;-91
2023/11/26 04:11:18;;;;;;;1.00;1.00;;;;;;;;;;6207564;23;20534;-89
2023/11/26 04:14:24;;;;;;;0.83;0.70;;;;;;;;;;6207983;23;20610;-91
2023/11/26 04:17:30;;;;;;;0.87;0.80;;;;;;;;;;6208102;23;20163;-91
2023/11/26 04:20:35;;;;;;;0.53;0.53;;;;;;;;;;6210257;22;20220;-91
2023/11/26 04:23:40;;;;;;;0.70;0.70;;;;;;;;;;6210622;22;20162;-89
2023/11/26 04:26:47;;;;;;;0.60;0.60;;;;;;;;;;6210878;23;20167;-91
2023/11/26 04:29:53;;;;;;;0.70;0.70;;;;;;;;;;6210344;23;20619;-89
2023/11/26 04:32:58;;;;;;;0.50;0.50;;;;;;;;;;6210123;23;20215;-89
2023/11/26 04:36:13;;;;;;;0.83;0.83;;;;;;;;;;6209623;22;20218;-91
2023/11/26 04:39:18;;;;;;;1.53;0.73;;;;;;;;;;6211342;23;20215;-93
2023/11/26 04:42:24;;;;;;;0.47;0.47;;;;;;;;;;6210183;23;20179;-91
2023/11/26 04:45:30;;;;;;;0.50;0.50;;;;;;;;;;6208920;23;20159;-92
2023/11/26 04:48:35;;;;;;;0.70;0.70;;;;;;;;;;6210080;22;20151;-93
2023/11/26 04:51:41;;;;;;;0.53;0.50;;;;;;;;;;6209699;22;20217;-92
2023/11/26 04:54:46;;;;;;;1.10;0.63;;;;;;;;;;6209248;23;20240;-92
2023/11/26 04:57:52;;;;;;;0.73;0.53;;;;;;;;;;6210078;23;20501;-91
2023/11/26 05:00:58;;;;;;;0.37;0.37;;;;;;;;;;6208436;23;20234;-91
2023/11/26 05:04:03;;;;;;;0.40;0.40;;;;;;;;;;6209892;22;20223;-93
2023/11/26 05:07:09;;;;;;;0.60;0.60;;;;;;;;;;6207951;23;20245;-92
2023/11/26 05:10:15;;;;;;;0.70;0.50;;;;;;;;;;6210129;23;20154;-91
2023/11/26 05:13:21;;;;;;;0.60;0.60;;;;;;;;;;6209028;23;20174;-92
2023/11/26 05:16:28;;;;;;;0.40;0.40;;;;;;;;;;6209174;23;20238;-91
2023/11/26 05:19:33;;;;;;;0.50;0.50;;;;;;;;;;6209584;23;20159;-94
2023/11/26 05:22:38;;;;;;;1.23;0.70;;;;;;;;;;6209689;23;20499;-92
2023/11/26 05:25:43;;;;;;;0.30;0.30;;;;;;;;;;6209274;23;20307;-92
2023/11/26 05:28:48;;;;;;;0.30;0.30;;;;;;;;;;6209818;23;20174;-92
2023/11/26 05:31:55;;;;;;;0.30;0.30;;;;;;;;;;6210384;23;20253;-91
2023/11/26 05:35:08;;;;;;;0.77;0.50;;;;;;;;;;6209905;23;20202;-90
2023/11/26 05:38:13;;;;;;;0.40;0.40;;;;;;;;;;6210888;22;20178;-94
2023/11/26 05:41:18;;;;;;;0.33;0.33;;;;;;;;;;6210593;23;20241;-92
2023/11/26 05:44:23;;;;;;;0.30;0.30;;;;;;;;;;6209080;23;20171;-93
2023/11/26 05:47:30;;;;;;;0.30;0.30;;;;;;;;;;6206852;23;20186;-90
2023/11/26 05:50:35;;;;;;;7.23;0.77;;;;;;;;;;6206929;23;20171;-90
2023/11/26 05:53:41;;;;;;;0.30;0.30;;;;;;;;;;6209494;22;20207;-91
2023/11/26 05:56:46;;;;;;;0.60;0.60;;;;;;;;;;6208987;23;20504;-92
2023/11/26 05:59:51;;;;;;;0.40;0.40;;;;;;;;;;6211072;23;20175;-90
2023/11/26 06:02:59;;;;;;;0.40;0.40;;;;;;;;;;6209488;23;20243;-92
2023/11/26 06:06:04;;;;;;;0.67;0.60;;;;;;;;;;6211673;23;20151;-93
2023/11/26 06:09:09;;;;;;;0.30;0.30;;;;;;;;;;6211244;23;20174;-93
2023/11/26 06:12:14;;;;;;;0.40;0.40;;;;;;;;;;6213849;23;20240;-92
2023/11/26 06:15:19;;;;;;;1.90;0.60;;;;;;;;;;6213079;23;20478;-93
2023/11/26 06:18:25;;;;;;;0.50;0.50;;;;;;;;;;6212703;23;20537;-91
2023/11/26 06:21:32;;;;;;;0.40;0.40;;;;;;;;;;6213877;23;20170;-92
2023/11/26 06:24:38;;;;;;;0.30;0.30;;;;;;;;;;6215499;22;20168;-92
2023/11/26 06:27:43;;;;;;;0.40;0.40;;;;;;;;;;6212886;23;20175;-90
2023/11/26 06:30:50;;;;;;;0.47;0.47;;;;;;;;;;6212054;23;20611;-92
2023/11/26 06:33:58;;;;;;;0.50;0.50;;;;;;;;;;6212201;23;20175;-90
2023/11/26 06:37:04;;;;;;;6.80;0.83;;;;;;;;;;6210294;23;20246;-91
2023/11/26 06:40:12;;;;;;;0.50;0.50;;;;;;;;;;6210840;23;20203;-90
2023/11/26 06:43:17;;;;;;;0.30;0.30;;;;;;;;;;6212254;23;20171;-92
2023/11/26 06:46:24;;;;;;;0.30;0.30;;;;;;;;;;6216614;23;20219;-90
2023/11/26 06:49:35;;;;;;;0.40;0.40;;;;;;;;;;6222403;22;20154;-90
2023/11/26 06:52:41;;;;;;;0.30;0.30;;;;;;;;;;6222235;22;20194;-91
2023/11/26 06:55:51;;;;;;;0.73;0.70;;;;;;;;;;6223248;23;20187;-90
2023/11/26 06:58:56;;;;;;;0.30;0.30;;;;;;;;;;6217716;23;20167;-92
2023/11/26 07:02:03;;;;;;;0.37;0.37;;;;;;;;;;6212779;22;20237;-88
2023/11/26 07:05:12;;;;;;;0.87;0.67;;;;;;;;;;6211785;23;20207;-90
2023/11/26 07:08:18;;;;;;;0.77;0.70;;;;;;;;;;6217211;23;20187;-93
2023/11/26 07:11:24;;;;;;;0.73;0.73;;;;;;;;;;6212552;23;20214;-92
2023/11/26 07:14:30;;;;;;;0.60;0.60;;;;;;;;;;6211360;23;20234;-92
2023/11/26 07:17:35;;;;;;;0.30;0.30;;;;;;;;;;6213455;22;20148;-92
2023/11/26 07:20:41;;;;;;;0.60;0.60;;;;;;;;;;6215089;22;20171;-93
2023/11/26 07:23:47;;;;;;;0.47;0.47;;;;;;;;;;6213165;23;20619;-92
2023/11/26 07:26:53;;;;;;;0.40;0.40;;;;;;;;;;6214878;23;20166;-91
2023/11/26 07:29:58;;;;;;;1.23;0.60;;;;;;;;;;6211724;23;20167;-88
2023/11/26 07:33:03;;;;;;;4.80;0.93;;;;;;;;;;6214110;23;20194;-89
2023/11/26 07:36:14;;;;;;;0.67;0.67;;;;;;;;;;6212927;23;20172;-91
2023/11/26 07:39:19;;;;;;;1.17;0.77;;;;;;;;;;6213206;23;20167;-90
2023/11/26 07:42:24;;;;;;;1.70;0.93;;;;;;;;;;6211832;23;20171;-91
2023/11/26 07:45:29;;;;;;;0.30;0.30;;;;;;;;;;6212850;22;20183;-92
2023/11/26 07:48:35;;;;;;;0.30;0.30;;;;;;;;;;6211925;22;20777;-90
2023/11/26 07:51:42;;;;;;;0.50;0.50;;;;;;;;;;6215484;23;20219;-89
2023/11/26 07:54:47;;;;;;;1.53;0.67;;;;;;;;;;6214285;23;20167;-89
2023/11/26 07:57:52;;;;;;;0.50;0.50;;;;;;;;;;6211945;23;20293;-89
2023/11/26 08:00:58;;;;;;;0.30;0.30;;;;;;;;;;6213995;22;20440;-91
2023/11/26 08:04:04;;;;;;;0.30;0.30;;;;;;;;;;6213878;22;20147;-90
2023/11/26 08:07:11;;;;;;;0.37;0.37;;;;;;;;;;6214774;23;20167;-87
2023/11/26 08:10:20;;;;;;;0.50;0.50;;;;;;;;;;6212386;23;20218;-90
2023/11/26 08:13:27;;;;;;;0.30;0.30;;;;;;;;;;6210536;23;20512;-91
2023/11/26 08:16:33;;;;;;;0.30;0.30;;;;;;;;;;6209809;22;20179;-91
2023/11/26 08:19:40;;;;;;;0.50;0.50;;;;;;;;;;6210257;23;20174;-91
2023/11/26 08:22:47;;;;;;;0.40;0.40;;;;;;;;;;6210428;23;20175;-92
2023/11/26 08:25:52;;;;;;;0.30;0.30;;;;;;;;;;6210780;23;20162;-90
2023/11/26 08:28:57;;;;;;;0.50;0.50;;;;;;;;;;6211957;22;20196;-90
2023/11/26 08:32:03;;;;;;;0.30;0.30;;;;;;;;;;6211295;22;20522;-93
2023/11/26 08:35:09;;;;;;;0.50;0.50;;;;;;;;;;6212126;23;20497;-92
2023/11/26 08:38:16;;;;;;;0.30;0.30;;;;;;;;;;6214104;23;20171;-89
2023/11/26 08:41:21;;;;;;;0.30;0.30;;;;;;;;;;6211937;23;20214;-92
2023/11/26 08:44:27;;;;;;;0.50;0.50;;;;;;;;;;6212687;23;20155;-91
2023/11/26 08:47:34;;;;;;;0.40;0.40;;;;;;;;;;6214915;23;20151;-91
2023/11/26 08:50:40;;;;;;;0.30;0.30;;;;;;;;;;6213746;22;20167;-90
2023/11/26 08:53:48;;;;;;;0.30;0.30;;;;;;;;;;6213932;23;20237;-91
2023/11/26 08:56:53;;;;;;;0.40;0.40;;;;;;;;;;6215973;22;20183;-90
2023/11/26 09:03:18;;;;;;;0.30;0.30;;;;;;;;;;6211918;23;20237;-92
2023/11/26 09:06:23;;;;;;;0.30;0.30;;;;;;;;;;6213121;22;20174;-91
2023/11/26 09:09:31;;;;;;;0.30;0.30;;;;;;;;;;6211499;23;20263;-90
2023/11/26 09:12:37;;;;;;;0.40;0.40;;;;;;;;;;6212748;23;20195;-91
2023/11/26 09:15:42;;;;;;;0.43;0.43;;;;;;;;;;6211439;23;20267;-89
2023/11/26 09:18:48;;;;;;;1.37;1.07;;;;;;;;;;6217415;23;20171;-89
2023/11/26 09:21:54;;;;;;;0.40;0.40;;;;;;;;;;6215513;23;20179;-92
2023/11/26 09:25:03;;;;;;;0.47;0.47;;;;;;;;;;6214420;22;20275;-92
2023/11/26 09:28:09;;;;;;;2.10;0.50;;;;;;;;;;6212325;23;20170;-91
2023/11/26 09:31:14;;;;;;;0.23;0.23;;;;;;;;;;6212060;23;20183;-92
2023/11/26 09:34:19;;;;;;;0.30;0.30;;;;;;;;;;6212580;22;20151;-93
2023/11/26 09:37:25;;;;;;;0.30;0.30;;;;;;;;;;6212943;22;20171;-92
2023/11/26 09:40:32;;;;;;;0.30;0.30;;;;;;;;;;6214638;22;20167;-89
2023/11/26 09:43:37;;;;;;;3.67;1.90;;;;;;;;;;6214358;22;20622;-90
2023/11/26 09:46:45;;;;;;;2.43;0.50;;;;;;;;;;6213241;23;20183;-91
2023/11/26 09:49:50;;;;;;;0.50;0.50;;;;;;;;;;6214372;23;20193;-89
2023/11/26 09:52:56;;;;;;;0.57;0.57;;;;;;;;;;6212603;23;20190;-90
2023/11/26 09:56:04;;;;;;;0.30;0.30;;;;;;;;;;6213144;23;20154;-88
2023/11/26 09:59:26;;;;;;;0.40;0.40;;;;;;;;;;6214813;23;20170;-88
2023/11/26 10:02:32;;;;;;;0.33;0.33;;;;;;;;;;6214408;23;20194;-88
2023/11/26 10:05:39;;;;;;;0.30;0.30;;;;;;;;;;6217559;23;20163;-91
2023/11/26 10:08:45;;;;;;;0.30;0.30;;;;;;;;;;6214736;22;20182;-90
2023/11/26 10:11:53;;;;;;;8.80;1.27;;;;;;;;;;6216655;23;20247;-89
2023/11/26 10:15:06;;;;;;;0.30;0.30;;;;;;;;;;6216082;23;20214;-87
2023/11/26 10:18:13;;;;;;;0.30;0.30;;;;;;;;;;6215011;23;20179;-89
2023/11/26 10:21:19;;;;;;;0.30;0.30;;;;;;;;;;6214926;22;20175;-90
2023/11/26 10:24:27;;;;;;;0.30;0.30;;;;;;;;;;6216507;23;20251;-89
2023/11/26 10:27:34;;;;;;;3.40;1.30;;;;;;;;;;6214550;23;20170;-89
2023/11/26 10:30:41;;;;;;;0.53;0.53;;;;;;;;;;6215471;23;20171;-89
2023/11/26 10:33:47;;;;;;;0.30;0.30;;;;;;;;;;6212965;23;20191;-91
2023/11/26 10:36:54;;;;;;;0.57;0.57;;;;;;;;;;6214556;22;20155;-89
2023/11/26 10:39:59;;;;;;;0.80;0.80;;;;;;;;;;6216499;23;20758;-91
2023/11/26 10:43:08;;;;;;;0.50;0.50;;;;;;;;;;6215333;23;20511;-91
2023/11/26 10:46:14;;;;;;;0.40;0.40;;;;;;;;;;6215420;23;20167;-89
2023/11/26 10:49:24;;;;;;;0.30;0.30;;;;;;;;;;6213939;23;20171;-90
2023/11/26 10:52:37;;;;;;;0.53;0.50;;;;;;;;;;6214376;22;20222;-89
2023/11/26 10:55:43;;;;;;;0.50;0.50;;;;;;;;;;6216005;23;20179;-90
2023/11/26 10:58:58;;;;;;;0.30;0.30;;;;;;;;;;6216027;23;20228;-90
2023/11/26 11:02:03;;;;;;;1.50;0.70;;;;;;;;;;6214876;23;20194;-89
2023/11/26 11:05:10;;;;;;;1.80;1.13;;;;;;;;;;6215254;22;20181;-91
2023/11/26 11:08:16;;;;;;;0.20;0.20;;;;;;;;;;6215652;23;20163;-87
2023/11/26 11:11:26;;;;;;;7.70;3.03;;;;;;;;;;6215624;23;20210;-89
2023/11/26 11:14:34;;;;;;;7.77;2.43;;;;;;;;;;6215245;23;20163;-89
2023/11/26 11:17:39;;;;;;;5.03;2.43;;;;;;;;;;6212392;23;20170;-90
2023/11/26 11:21:01;;;;;;;6.37;2.40;;;;;;;;;;6212511;22;20179;-89
2023/11/26 11:24:19;;;;;;;7.37;2.57;;;;;;;;;;6214163;23;20171;-93
2023/11/26 11:27:48;;;;;;;5.50;2.20;;;;;;;;;;6212948;23;20171;-92
2023/11/26 11:30:56;;;;;;;3.80;2.27;;;;;;;;;;6212129;23;20191;-92
2023/11/26 11:34:22;;;;;;;4.97;1.80;;;;;;;;;;6214841;22;20271;-92
2023/11/26 11:37:53;;;;;;;5.23;2.20;;;;;;;;;;6212927;23;20174;-89
2023/11/26 11:40:59;;;;;;;5.10;2.30;;;;;;;;;;6211560;22;20207;-89
2023/11/26 11:44:21;;;;;;;6.40;2.60;;;;;;;;;;6216726;23;20175;-89
2023/11/26 11:51:21;;;;;;;10.23;2.50;;;;;;;;;;6214304;23;20191;-90
2023/11/26 11:54:54;;;;;;;7.20;2.63;;;;;;;;;;6211089;23;20167;-89
2023/11/26 11:58:03;;;;;;;4.43;2.00;;;;;;;;;;6210800;23;20287;-92
2023/11/26 12:01:09;;;;;;;10.73;3.57;;;;;;;;;;6213667;22;20174;-90
2023/11/26 12:04:16;;;;;;;7.10;2.80;;;;;;;;;;6213916;22;20275;-92
2023/11/26 12:07:22;;;;;;;9.00;3.27;;;;;;;;;;6213751;23;20171;-91
2023/11/26 12:10:30;;;;;;;6.30;2.37;;;;;;;;;;6215405;23;20163;-89
2023/11/26 12:13:42;;;;;;;7.77;2.70;;;;;;;;;;6213253;23;20243;-89
2023/11/26 12:16:48;;;;;;;5.40;2.53;;;;;;;;;;6214308;23;20163;-89
2023/11/26 12:19:55;;;;;;;11.30;4.00;;;;;;;;;;6213700;23;20163;-90
2023/11/26 12:23:01;;;;;;;8.33;3.40;;;;;;;;;;6212194;23;20250;-91
2023/11/26 12:26:07;;;;;;;6.83;2.63;;;;;;;;;;6213849;22;20240;-91
2023/11/26 12:29:15;;;;;;;7.70;2.70;;;;;;;;;;6212869;23;20206;-90
2023/11/26 12:32:26;;;;;;;4.20;2.20;;;;;;;;;;6214172;22;20480;-91
2023/11/26 12:35:34;;;;;;;6.27;2.50;;;;;;;;;;6211740;23;20318;-91
2023/11/26 12:38:40;;;;;;;7.00;2.00;;;;;;;;;;6211137;23;20190;-89
2023/11/26 12:41:45;;;;;;;5.03;2.10;;;;;;;;;;6209578;23;20171;-87
2023/11/26 12:44:50;;;;;;;6.70;2.30;;;;;;;;;;6213181;22;20508;-92
2023/11/26 12:47:56;;;;;;;3.37;1.80;;;;;;;;;;6211654;23;20167;-93
2023/11/26 12:51:03;;;;;;;4.40;2.23;;;;;;;;;;6212593;23;20163;-91
2023/11/26 12:54:09;;;;;;;3.20;1.90;;;;;;;;;;6211184;23;20195;-89
2023/11/26 12:57:14;;;;;;;3.30;2.13;;;;;;;;;;6213345;22;20222;-92
2023/11/26 13:00:20;;;;;;;4.73;2.30;;;;;;;;;;6214183;22;20170;-92
2023/11/26 13:03:26;;;;;;;6.97;2.90;;;;;;;;;;6211944;23;20304;-90
2023/11/26 13:06:33;;;;;;;8.60;2.40;;;;;;;;;;6210873;23;20167;-91
2023/11/26 13:09:51;;;;;;;5.03;2.47;;;;;;;;;;6212507;23;20166;-91
2023/11/26 13:12:57;;;;;;;6.97;2.10;;;;;;;;;;6213104;22;20199;-91
2023/11/26 13:16:16;;;;;;;5.83;2.40;;;;;;;;;;6216060;23;20175;-92
2023/11/26 13:19:27;;;;;;;6.47;2.30;;;;;;;;;;6213721;23;20163;-91
2023/11/26 13:22:35;;;;;;;8.27;1.90;;;;;;;;;;6215805;23;20213;-92
2023/11/26 13:25:41;;;;;;;4.23;1.80;;;;;;;;;;6216107;22;20158;-91
2023/11/26 13:28:47;;;;;;;3.77;1.90;;;;;;;;;;6216453;22;20167;-91
2023/11/26 13:31:54;;;;;;;9.37;2.70;;;;;;;;;;6236497;22;20171;-90
2023/11/26 13:34:59;;;;;;;4.87;1.93;;;;;;;;;;6215928;23;20179;-91
2023/11/26 13:38:07;;;;;;;7.50;1.80;;;;;;;;;;6217063;22;20194;-91
2023/11/26 13:41:18;;;;;;;4.57;2.17;;;;;;;;;;6216710;22;20155;-92
2023/11/26 13:44:24;;;;;;;3.80;1.67;;;;;;;;;;6216331;22;20159;-92
2023/11/26 13:47:30;;;;;;;4.80;1.93;;;;;;;;;;6216351;23;20171;-91
2023/11/26 13:50:37;;;;;;;4.27;2.20;;;;;;;;;;6213491;23;20179;-88
2023/11/26 13:53:44;;;;;;;5.33;1.93;;;;;;;;;;6216208;23;20183;-91
2023/11/26 13:56:51;;;;;;;4.43;1.80;;;;;;;;;;6216561;22;20191;-89
2023/11/26 13:59:56;;;;;;;2.60;1.67;;;;;;;;;;6217536;23;20163;-92
2023/11/26 14:03:04;;;;;;;4.90;2.10;;;;;;;;;;6216843;23;20214;-89
2023/11/26 14:06:11;;;;;;;4.07;2.13;;;;;;;;;;6213472;22;20675;-89
2023/11/26 14:09:20;;;;;;;4.27;1.60;;;;;;;;;;6217102;22;20171;-90
2023/11/26 14:12:25;;;;;;;10.67;2.63;;;;;;;;;;6216783;22;20171;-90
2023/11/26 14:15:32;;;;;;;4.93;2.50;;;;;;;;;;6216784;22;20167;-89
2023/11/26 14:18:37;;;;;;;4.10;2.00;;;;;;;;;;6213592;23;20171;-93
2023/11/26 14:21:44;;;;;;;9.13;1.50;;;;;;;;;;6216503;22;20179;-91
2023/11/26 14:25:11;;;;;;;2.60;1.50;;;;;;;;;;6217220;22;20241;-90
2023/11/26 14:28:17;;;;;;;2.47;1.70;;;;;;;;;;6215584;22;20222;-91
2023/11/26 14:31:24;;;;;;;3.87;1.53;;;;;;;;;;6217077;22;20163;-90
2023/11/26 14:34:29;;;;;;;5.93;2.27;;;;;;;;;;6219492;22;20235;-92
2023/11/26 14:37:35;;;;;;;7.13;2.10;;;;;;;;;;6214276;22;20170;-90
2023/11/26 14:40:45;;;;;;;6.27;2.43;;;;;;;;;;6213876;22;20204;-92
2023/11/26 14:43:51;;;;;;;10.03;2.40;;;;;;;;;;6214813;23;20171;-89
2023/11/26 14:47:00;;;;;;;7.50;2.80;;;;;;;;;;6214773;22;20171;-90
2023/11/26 14:50:07;;;;;;;7.43;2.80;;;;;;;;;;6216485;23;20259;-91
2023/11/26 14:53:12;;;;;;;10.70;2.63;;;;;;;;;;6217843;23;20517;-92
2023/11/26 14:56:18;;;;;;;3.87;1.97;;;;;;;;;;6214601;23;20163;-89
2023/11/26 14:59:25;;;;;;;6.27;2.10;;;;;;;;;;6213913;23;20199;-90
2023/11/26 15:02:33;;;;;;;5.30;2.20;;;;;;;;;;6214575;22;20195;-90
2023/11/26 15:05:40;;;;;;;3.40;2.20;;;;;;;;;;6214124;22;20599;-90
2023/11/26 15:08:45;;;;;;;3.97;2.00;;;;;;;;;;6213159;23;20171;-91
2023/11/26 15:11:54;;;;;;;6.27;2.50;;;;;;;;;;6214510;22;20219;-90
2023/11/26 15:18:35;;;;;;;8.63;2.80;;;;;;;;;;6213707;23;20169;-93
2023/11/26 15:21:40;;;;;;;7.27;2.80;;;;;;;;;;6214313;23;20175;-93
2023/11/26 15:24:47;;;;;;;7.53;2.83;;;;;;;;;;6212705;23;20219;-91
2023/11/26 15:27:53;;;;;;;7.30;2.93;;;;;;;;;;6212379;22;20154;-91
2023/11/26 15:30:59;;;;;;;6.70;3.30;;;;;;;;;;6214570;22;20482;-91
2023/11/26 15:34:06;;;;;;;19.57;7.20;;;;;;;;;;6213380;23;20203;-91
2023/11/26 15:37:11;;;;;;;9.23;3.63;;;;;;;;;;6212421;23;20214;-89
2023/11/26 15:40:16;;;;;;;9.87;3.43;;;;;;;;;;6210988;23;20175;-95
2023/11/26 15:43:22;;;;;;;7.40;3.10;;;;;;;;;;6211091;23;20159;-90
2023/11/26 15:46:28;;;;;;;13.67;4.17;;;;;;;;;;6211506;22;20171;-91
2023/11/26 15:49:37;;;;;;;14.20;5.70;;;;;;;;;;6209534;23;20271;-91
2023/11/26 15:52:42;;;;;;;17.33;6.00;;;;;;;;;;6209531;23;20171;-91
2023/11/26 15:55:48;;;;;;;20.50;6.87;;;;;;;;;;6208030;23;20958;-92
2023/11/26 15:58:53;;;;;;;18.30;6.67;;;;;;;;;;6211680;23;20171;-90
2023/11/26 16:02:00;;;;;;;16.90;5.30;;;;;;;;;;6209571;23;20185;-93
2023/11/26 16:05:19;;;;;;;9.23;4.07;;;;;;;;;;6212356;23;20216;-89
2023/11/26 16:08:24;;;;;;;15.83;4.37;;;;;;;;;;6209029;23;20168;-92
2023/11/26 16:11:34;;;;;;;9.27;4.57;;;;;;;;;;6208932;22;20210;-90
2023/11/26 16:14:40;;;;;;;9.47;4.60;;;;;;;;;;6211132;23;20195;-90
2023/11/26 16:17:47;;;;;;;19.80;6.50;;;;;;;;;;6213057;23;20162;-92
2023/11/26 16:20:54;;;;;;;14.23;6.60;;;;;;;;;;6213815;22;20171;-90
2023/11/26 16:24:04;;;;;;;12.40;5.00;;;;;;;;;;6213536;23;20493;-88
2023/11/26 16:27:10;;;;;;;15.70;5.70;;;;;;;;;;6216356;22;20240;-87
2023/11/26 16:30:16;;;;;;;13.30;5.13;;;;;;;;;;6212194;23;20175;-91
2023/11/26 16:33:40;;;;;;;16.03;6.80;;;;;;;;;;6212655;23;20163;-89
2023/11/26 16:36:48;;;;;;;13.93;5.50;;;;;;;;;;6213498;22;20171;-90
2023/11/26 16:39:53;;;;;;;8.87;4.83;;;;;;;;;;6213291;22;20152;-91
2023/11/26 16:42:58;;;;;;;13.10;5.63;;;;;;;;;;6213578;22;20211;-90
2023/11/26 16:46:08;;;;;;;12.60;5.13;;;;;;;;;;6212686;23;20191;-89
2023/11/26 16:52:38;;;;;;;15.23;6.27;;;;;;;;;;6237189;23;20162;-90
2023/11/26 16:55:44;;;;;;;15.60;6.93;;;;;;;;;;6212359;23;20518;-90
2023/11/26 16:58:50;;;;;;;16.57;7.67;;;;;;;;;;6213112;22;20151;-91
2023/11/26 17:01:55;;;;;;;22.27;8.23;;;;;;;;;;6213281;23;20206;-91
2023/11/26 17:05:00;;;;;;;14.37;7.20;;;;;;;;;;6212930;22;20227;-91
2023/11/26 17:08:07;;;;;;;23.83;8.43;;;;;;;;;;6213656;22;20163;-90
2023/11/26 17:11:15;;;;;;;21.00;8.70;;;;;;;;;;6213659;23;20214;-92
2023/11/26 17:14:25;;;;;;;22.83;9.37;;;;;;;;;;6212837;23;20194;-92
2023/11/26 17:17:32;;;;;;;17.17;7.67;;;;;;;;;;6212972;22;20214;-90
2023/11/26 17:20:37;;;;;;;13.77;7.07;;;;;;;;;;6213358;23;20203;-90
2023/11/26 17:23:44;;;;;;;12.07;6.30;;;;;;;;;;6213510;23;20167;-91
2023/11/26 17:26:49;;;;;;;13.73;5.33;;;;;;;;;;6213749;23;20685;-93
2023/11/26 17:30:05;;;;;;;12.93;5.00;;;;;;;;;;6215838;22;20167;-91
2023/11/26 17:33:12;;;;;;;12.97;6.23;;;;;;;;;;6216977;23;20166;-91
2023/11/26 17:36:19;;;;;;;12.07;5.87;;;;;;;;;;6215439;22;20217;-90
2023/11/26 17:39:28;;;;;;;12.87;6.17;;;;;;;;;;6216052;23;20183;-92
2023/11/26 17:42:35;;;;;;;13.27;5.90;;;;;;;;;;6216156;22;20188;-91
2023/11/26 17:45:42;;;;;;;16.63;8.33;;;;;;;;;;6217134;22;20151;-90
2023/11/26 17:48:51;;;;;;;8.63;4.90;;;;;;;;;;6215875;22;20171;-92
2023/11/26 17:51:57;;;;;;;12.17;5.30;;;;;;;;;;6213277;23;20184;-89
2023/11/26 17:55:04;;;;;;;11.13;5.17;;;;;;;;;;6214051;23;20262;-92
2023/11/26 17:58:12;;;;;;;14.40;5.70;;;;;;;;;;6213098;23;20312;-89
2023/11/26 18:01:20;;;;;;;14.57;6.17;;;;;;;;;;6217544;22;20147;-88
2023/11/26 18:04:30;;;;;;;18.27;7.00;;;;;;;;;;6217093;22;20206;-91
2023/11/26 18:07:40;;;;;;;10.03;5.40;;;;;;;;;;6217243;23;20219;-90
2023/11/26 18:10:49;;;;;;;11.80;5.53;;;;;;;;;;6216373;23;20207;-87
2023/11/26 18:13:57;;;;;;;13.73;5.77;;;;;;;;;;6214692;23;20168;-91
2023/11/26 19:07:20;;;;;;;11.30;5.30;;;;;;;;;;6187454;22;20195;31
2023/11/26 19:10:27;;;;;;;13.63;6.30;;;;;;;;;;6143739;23;20220;-90
2023/11/26 19:13:33;;;;;;;14.87;7.03;;;;;;;;;;6156862;23;20168;-90
2023/11/26 19:16:41;;;;;;;11.70;5.63;;;;;;;;;;6155990;23;20168;-89
2023/11/26 19:19:47;;;;;;;10.83;5.83;;;;;;;;;;6156821;23;20510;-89
2023/11/26 19:22:54;;;;;;;12.27;5.80;;;;;;;;;;6157242;23;20172;-91
2023/11/26 19:26:05;;;;;;;17.40;6.40;;;;;;;;;;6160728;23;20176;-90
2023/11/26 19:29:22;;;;;;;22.17;7.73;;;;;;;;;;6161238;23;20169;-91
2023/11/26 19:35:52;;;;;;;19.50;8.10;;;;;;;;;;6162602;23;20599;-88
2023/11/26 19:42:20;;;;;;;12.00;5.37;;;;;;;;;;6163847;23;20153;-87
2023/11/26 19:45:27;;;;;;;14.47;5.50;;;;;;;;;;6162286;23;20169;-89
2023/11/26 19:48:37;;;;;;;13.17;5.50;;;;;;;;;;6160718;23;20168;-88
2023/11/26 19:51:45;;;;;;;12.97;6.03;;;;;;;;;;6159872;23;20169;-88
2023/11/26 19:54:51;;;;;;;15.77;6.73;;;;;;;;;;6157293;23;20196;-91